sensor_id;sensor_type;location;lat;lon;timestamp;P1;durP1;ratioP1;P2;durP2;ratioP2
16193;SDS011;8204;53.582;10.080;2023-11-19T00:00:24;9.53;;;8.60;;
16193;SDS011;8204;53.582;10.080;2023-11-19T00:02:50;8.43;;;7.73;;
16193;SDS011;8204;53.582;10.080;2023-11-19T00:05:16;7.63;;;7.03;;
16193;SDS011;8204;53.582;10.080;2023-11-19T00:07:41;8.03;;;7.23;;
16193;SDS011;8204;53.582;10.080;2023-11-19T00:10:08;8.17;;;7.40;;
16193;SDS011;8204;53.582;10.080;2023-11-19T00:12:37;7.27;;;6.63;;
16193;SDS011;8204;53.582;10.080;2023-11-19T00:15:05;8.53;;;7.43;;
16193;SDS011;8204;53.582;10.080;2023-11-19T00:17:31;6.23;;;5.63;;
16193;SDS011;8204;53.582;10.080;2023-11-19T00:19:57;8.53;;;6.70;;
16193;SDS011;8204;53.582;10.080;2023-11-19T00:22:22;7.13;;;6.50;;
16193;SDS011;8204;53.582;10.080;2023-11-19T00:24:48;6.27;;;5.77;;
16193;SDS011;8204;53.582;10.080;2023-11-19T00:27:13;7.33;;;6.67;;
16193;SDS011;8204;53.582;10.080;2023-11-19T00:29:39;6.73;;;6.23;;
16193;SDS011;8204;53.582;10.080;2023-11-19T00:32:04;5.97;;;5.47;;
16193;SDS011;8204;53.582;10.080;2023-11-19T00:34:30;5.57;;;5.17;;
16193;SDS011;8204;53.582;10.080;2023-11-19T00:36:56;5.90;;;5.40;;
16193;SDS011;8204;53.582;10.080;2023-11-19T00:39:22;6.53;;;6.03;;
16193;SDS011;8204;53.582;10.080;2023-11-19T00:41:48;6.23;;;5.67;;
16193;SDS011;8204;53.582;10.080;2023-11-19T00:44:13;5.60;;;5.20;;
16193;SDS011;8204;53.582;10.080;2023-11-19T00:46:38;4.70;;;4.30;;
16193;SDS011;8204;53.582;10.080;2023-11-19T00:49:04;3.80;;;3.50;;
16193;SDS011;8204;53.582;10.080;2023-11-19T00:51:30;4.33;;;4.03;;
16193;SDS011;8204;53.582;10.080;2023-11-19T00:53:56;5.03;;;4.63;;
16193;SDS011;8204;53.582;10.080;2023-11-19T00:56:22;3.97;;;3.67;;
16193;SDS011;8204;53.582;10.080;2023-11-19T00:58:48;4.33;;;4.03;;
16193;SDS011;8204;53.582;10.080;2023-11-19T01:01:13;6.27;;;4.60;;
16193;SDS011;8204;53.582;10.080;2023-11-19T01:03:41;3.93;;;3.67;;
16193;SDS011;8204;53.582;10.080;2023-11-19T01:06:06;4.03;;;3.73;;
16193;SDS011;8204;53.582;10.080;2023-11-19T01:08:33;4.33;;;4.03;;
16193;SDS011;8204;53.582;10.080;2023-11-19T01:11:01;4.13;;;3.73;;
16193;SDS011;8204;53.582;10.080;2023-11-19T01:13:27;3.93;;;3.33;;
16193;SDS011;8204;53.582;10.080;2023-11-19T01:15:53;3.53;;;3.23;;
16193;SDS011;8204;53.582;10.080;2023-11-19T01:18:18;3.73;;;3.43;;
16193;SDS011;8204;53.582;10.080;2023-11-19T01:20:45;2.70;;;2.50;;
16193;SDS011;8204;53.582;10.080;2023-11-19T01:23:11;3.20;;;2.97;;
16193;SDS011;8204;53.582;10.080;2023-11-19T01:25:37;2.50;;;2.30;;
16193;SDS011;8204;53.582;10.080;2023-11-19T01:28:03;2.40;;;2.20;;
16193;SDS011;8204;53.582;10.080;2023-11-19T01:30:30;2.23;;;2.03;;
16193;SDS011;8204;53.582;10.080;2023-11-19T01:32:56;2.77;;;2.57;;
16193;SDS011;8204;53.582;10.080;2023-11-19T01:35:22;2.43;;;2.23;;
16193;SDS011;8204;53.582;10.080;2023-11-19T01:37:48;2.07;;;1.97;;
16193;SDS011;8204;53.582;10.080;2023-11-19T01:40:13;2.57;;;2.37;;
16193;SDS011;8204;53.582;10.080;2023-11-19T01:42:40;2.47;;;2.27;;
16193;SDS011;8204;53.582;10.080;2023-11-19T01:45:06;2.97;;;2.73;;
16193;SDS011;8204;53.582;10.080;2023-11-19T01:47:33;2.57;;;2.37;;
16193;SDS011;8204;53.582;10.080;2023-11-19T01:50:00;2.43;;;2.27;;
16193;SDS011;8204;53.582;10.080;2023-11-19T01:52:26;2.17;;;1.97;;
16193;SDS011;8204;53.582;10.080;2023-11-19T01:54:52;2.27;;;2.17;;
16193;SDS011;8204;53.582;10.080;2023-11-19T01:57:19;2.00;;;1.77;;
16193;SDS011;8204;53.582;10.080;2023-11-19T01:59:47;2.53;;;2.30;;
16193;SDS011;8204;53.582;10.080;2023-11-19T02:02:14;1.87;;;1.77;;
16193;SDS011;8204;53.582;10.080;2023-11-19T02:04:40;1.77;;;1.67;;
16193;SDS011;8204;53.582;10.080;2023-11-19T02:07:07;2.10;;;1.90;;
16193;SDS011;8204;53.582;10.080;2023-11-19T02:09:32;1.70;;;1.60;;
16193;SDS011;8204;53.582;10.080;2023-11-19T02:11:58;1.60;;;1.50;;
16193;SDS011;8204;53.582;10.080;2023-11-19T02:14:25;1.77;;;1.47;;
16193;SDS011;8204;53.582;10.080;2023-11-19T02:16:51;1.63;;;1.53;;
16193;SDS011;8204;53.582;10.080;2023-11-19T02:19:20;1.90;;;1.67;;
16193;SDS011;8204;53.582;10.080;2023-11-19T02:21:46;1.60;;;1.50;;
16193;SDS011;8204;53.582;10.080;2023-11-19T02:24:11;1.87;;;1.63;;
16193;SDS011;8204;53.582;10.080;2023-11-19T02:26:41;1.53;;;1.27;;
16193;SDS011;8204;53.582;10.080;2023-11-19T02:29:13;1.93;;;1.33;;
16193;SDS011;8204;53.582;10.080;2023-11-19T02:31:39;2.03;;;1.60;;
16193;SDS011;8204;53.582;10.080;2023-11-19T02:34:06;1.60;;;1.50;;
16193;SDS011;8204;53.582;10.080;2023-11-19T02:36:31;2.00;;;1.90;;
16193;SDS011;8204;53.582;10.080;2023-11-19T02:38:57;1.37;;;1.33;;
16193;SDS011;8204;53.582;10.080;2023-11-19T02:41:23;1.47;;;1.37;;
16193;SDS011;8204;53.582;10.080;2023-11-19T02:43:49;2.50;;;1.40;;
16193;SDS011;8204;53.582;10.080;2023-11-19T02:46:15;1.73;;;1.63;;
16193;SDS011;8204;53.582;10.080;2023-11-19T02:48:42;1.57;;;1.47;;
16193;SDS011;8204;53.582;10.080;2023-11-19T02:51:09;2.30;;;2.10;;
16193;SDS011;8204;53.582;10.080;2023-11-19T02:53:35;1.87;;;1.77;;
16193;SDS011;8204;53.582;10.080;2023-11-19T02:56:03;1.73;;;1.63;;
16193;SDS011;8204;53.582;10.080;2023-11-19T02:58:42;1.90;;;1.80;;
16193;SDS011;8204;53.582;10.080;2023-11-19T03:01:09;1.80;;;1.70;;
16193;SDS011;8204;53.582;10.080;2023-11-19T03:03:44;1.30;;;1.20;;
16193;SDS011;8204;53.582;10.080;2023-11-19T03:06:15;1.80;;;1.70;;
16193;SDS011;8204;53.582;10.080;2023-11-19T03:08:41;1.33;;;1.33;;
16193;SDS011;8204;53.582;10.080;2023-11-19T03:11:07;1.80;;;1.40;;
16193;SDS011;8204;53.582;10.080;2023-11-19T03:13:34;1.63;;;1.53;;
16193;SDS011;8204;53.582;10.080;2023-11-19T03:16:00;1.40;;;1.30;;
16193;SDS011;8204;53.582;10.080;2023-11-19T03:18:25;1.40;;;1.30;;
16193;SDS011;8204;53.582;10.080;2023-11-19T03:20:50;1.17;;;1.17;;
16193;SDS011;8204;53.582;10.080;2023-11-19T03:23:17;1.50;;;1.40;;
16193;SDS011;8204;53.582;10.080;2023-11-19T03:25:42;2.20;;;2.00;;
16193;SDS011;8204;53.582;10.080;2023-11-19T03:28:08;1.60;;;1.50;;
16193;SDS011;8204;53.582;10.080;2023-11-19T03:30:34;2.33;;;2.13;;
16193;SDS011;8204;53.582;10.080;2023-11-19T03:32:59;2.17;;;2.00;;
16193;SDS011;8204;53.582;10.080;2023-11-19T03:35:26;1.83;;;1.73;;
16193;SDS011;8204;53.582;10.080;2023-11-19T03:37:53;2.23;;;2.13;;
16193;SDS011;8204;53.582;10.080;2023-11-19T03:40:18;1.80;;;1.70;;
16193;SDS011;8204;53.582;10.080;2023-11-19T03:42:46;2.20;;;2.10;;
16193;SDS011;8204;53.582;10.080;2023-11-19T03:45:12;1.40;;;1.30;;
16193;SDS011;8204;53.582;10.080;2023-11-19T03:47:37;2.47;;;2.13;;
16193;SDS011;8204;53.582;10.080;2023-11-19T03:50:05;2.63;;;2.00;;
16193;SDS011;8204;53.582;10.080;2023-11-19T03:52:32;2.13;;;2.03;;
16193;SDS011;8204;53.582;10.080;2023-11-19T03:54:57;2.20;;;2.10;;
16193;SDS011;8204;53.582;10.080;2023-11-19T03:57:23;2.30;;;2.20;;
16193;SDS011;8204;53.582;10.080;2023-11-19T03:59:48;3.77;;;2.20;;
16193;SDS011;8204;53.582;10.080;2023-11-19T04:02:15;2.83;;;2.63;;
16193;SDS011;8204;53.582;10.080;2023-11-19T04:04:40;2.77;;;2.57;;
16193;SDS011;8204;53.582;10.080;2023-11-19T04:07:06;2.90;;;2.70;;
16193;SDS011;8204;53.582;10.080;2023-11-19T04:09:32;3.50;;;2.33;;
16193;SDS011;8204;53.582;10.080;2023-11-19T04:12:02;5.00;;;2.93;;
16193;SDS011;8204;53.582;10.080;2023-11-19T04:14:28;2.50;;;2.40;;
16193;SDS011;8204;53.582;10.080;2023-11-19T04:16:53;2.83;;;2.67;;
16193;SDS011;8204;53.582;10.080;2023-11-19T04:19:19;2.93;;;2.70;;
16193;SDS011;8204;53.582;10.080;2023-11-19T04:21:45;5.70;;;3.30;;
16193;SDS011;8204;53.582;10.080;2023-11-19T04:24:11;2.97;;;2.77;;
16193;SDS011;8204;53.582;10.080;2023-11-19T04:26:40;3.10;;;2.90;;
16193;SDS011;8204;53.582;10.080;2023-11-19T04:29:08;2.97;;;2.77;;
16193;SDS011;8204;53.582;10.080;2023-11-19T04:31:34;3.20;;;2.90;;
16193;SDS011;8204;53.582;10.080;2023-11-19T04:33:59;3.70;;;3.40;;
16193;SDS011;8204;53.582;10.080;2023-11-19T04:36:26;3.73;;;3.00;;
16193;SDS011;8204;53.582;10.080;2023-11-19T04:38:51;3.47;;;3.20;;
16193;SDS011;8204;53.582;10.080;2023-11-19T04:41:17;3.50;;;3.30;;
16193;SDS011;8204;53.582;10.080;2023-11-19T04:43:42;2.97;;;2.77;;
16193;SDS011;8204;53.582;10.080;2023-11-19T04:46:09;2.83;;;2.63;;
16193;SDS011;8204;53.582;10.080;2023-11-19T04:48:34;3.20;;;3.00;;
16193;SDS011;8204;53.582;10.080;2023-11-19T04:51:00;3.60;;;3.30;;
16193;SDS011;8204;53.582;10.080;2023-11-19T04:53:26;2.83;;;2.70;;
16193;SDS011;8204;53.582;10.080;2023-11-19T04:55:51;3.87;;;3.67;;
16193;SDS011;8204;53.582;10.080;2023-11-19T04:58:17;3.80;;;3.50;;
16193;SDS011;8204;53.582;10.080;2023-11-19T05:00:43;3.57;;;3.33;;
16193;SDS011;8204;53.582;10.080;2023-11-19T05:03:08;3.43;;;3.13;;
16193;SDS011;8204;53.582;10.080;2023-11-19T05:05:34;4.10;;;3.73;;
16193;SDS011;8204;53.582;10.080;2023-11-19T05:07:59;4.70;;;4.40;;
16193;SDS011;8204;53.582;10.080;2023-11-19T05:10:25;4.17;;;3.77;;
16193;SDS011;8204;53.582;10.080;2023-11-19T05:12:51;5.00;;;4.43;;
16193;SDS011;8204;53.582;10.080;2023-11-19T05:15:17;5.00;;;4.60;;
16193;SDS011;8204;53.582;10.080;2023-11-19T05:17:42;8.03;;;5.30;;
16193;SDS011;8204;53.582;10.080;2023-11-19T05:20:08;6.43;;;5.63;;
16193;SDS011;8204;53.582;10.080;2023-11-19T05:22:40;5.67;;;5.27;;
16193;SDS011;8204;53.582;10.080;2023-11-19T05:25:07;7.03;;;6.43;;
16193;SDS011;8204;53.582;10.080;2023-11-19T05:27:34;6.03;;;5.63;;
16193;SDS011;8204;53.582;10.080;2023-11-19T05:30:03;6.40;;;5.83;;
16193;SDS011;8204;53.582;10.080;2023-11-19T05:32:32;8.27;;;7.57;;
16193;SDS011;8204;53.582;10.080;2023-11-19T05:34:58;8.03;;;7.37;;
16193;SDS011;8204;53.582;10.080;2023-11-19T05:37:23;7.83;;;7.13;;
16193;SDS011;8204;53.582;10.080;2023-11-19T05:39:48;10.33;;;6.63;;
16193;SDS011;8204;53.582;10.080;2023-11-19T05:42:14;8.30;;;7.60;;
16193;SDS011;8204;53.582;10.080;2023-11-19T05:44:39;8.50;;;7.67;;
16193;SDS011;8204;53.582;10.080;2023-11-19T05:47:05;8.00;;;7.37;;
16193;SDS011;8204;53.582;10.080;2023-11-19T05:49:30;11.90;;;7.50;;
16193;SDS011;8204;53.582;10.080;2023-11-19T05:51:56;10.40;;;7.33;;
16193;SDS011;8204;53.582;10.080;2023-11-19T05:54:21;9.23;;;8.37;;
16193;SDS011;8204;53.582;10.080;2023-11-19T05:56:47;9.73;;;8.80;;
16193;SDS011;8204;53.582;10.080;2023-11-19T05:59:14;9.77;;;8.87;;
16193;SDS011;8204;53.582;10.080;2023-11-19T06:01:42;9.23;;;8.43;;
16193;SDS011;8204;53.582;10.080;2023-11-19T06:04:09;12.07;;;8.60;;
16193;SDS011;8204;53.582;10.080;2023-11-19T06:06:35;9.57;;;8.50;;
16193;SDS011;8204;53.582;10.080;2023-11-19T06:09:01;14.50;;;13.13;;
16193;SDS011;8204;53.582;10.080;2023-11-19T06:11:27;17.10;;;11.80;;
16193;SDS011;8204;53.582;10.080;2023-11-19T06:13:53;11.33;;;10.33;;
16193;SDS011;8204;53.582;10.080;2023-11-19T06:16:18;10.13;;;9.20;;
16193;SDS011;8204;53.582;10.080;2023-11-19T06:18:44;12.13;;;10.93;;
16193;SDS011;8204;53.582;10.080;2023-11-19T06:21:10;19.13;;;12.03;;
16193;SDS011;8204;53.582;10.080;2023-11-19T06:23:36;14.90;;;11.63;;
16193;SDS011;8204;53.582;10.080;2023-11-19T06:26:01;24.23;;;13.50;;
16193;SDS011;8204;53.582;10.080;2023-11-19T06:28:26;14.63;;;11.87;;
16193;SDS011;8204;53.582;10.080;2023-11-19T06:30:53;14.80;;;13.20;;
16193;SDS011;8204;53.582;10.080;2023-11-19T06:33:18;16.93;;;15.13;;
16193;SDS011;8204;53.582;10.080;2023-11-19T06:35:44;18.53;;;15.37;;
16193;SDS011;8204;53.582;10.080;2023-11-19T06:38:10;16.77;;;14.90;;
16193;SDS011;8204;53.582;10.080;2023-11-19T06:40:35;25.43;;;14.33;;
16193;SDS011;8204;53.582;10.080;2023-11-19T06:43:01;21.40;;;13.30;;
16193;SDS011;8204;53.582;10.080;2023-11-19T06:45:28;20.87;;;14.27;;
16193;SDS011;8204;53.582;10.080;2023-11-19T06:47:54;25.23;;;13.73;;
16193;SDS011;8204;53.582;10.080;2023-11-19T06:50:20;20.70;;;14.73;;
16193;SDS011;8204;53.582;10.080;2023-11-19T06:52:45;21.40;;;15.03;;
16193;SDS011;8204;53.582;10.080;2023-11-19T06:55:12;20.57;;;13.43;;
16193;SDS011;8204;53.582;10.080;2023-11-19T06:57:41;17.17;;;13.73;;
16193;SDS011;8204;53.582;10.080;2023-11-19T07:00:07;19.87;;;13.50;;
16193;SDS011;8204;53.582;10.080;2023-11-19T07:02:34;21.63;;;13.90;;
16193;SDS011;8204;53.582;10.080;2023-11-19T07:05:00;20.70;;;11.70;;
16193;SDS011;8204;53.582;10.080;2023-11-19T07:07:25;26.87;;;13.23;;
16193;SDS011;8204;53.582;10.080;2023-11-19T07:09:51;20.67;;;14.00;;
16193;SDS011;8204;53.582;10.080;2023-11-19T07:12:17;23.53;;;13.33;;
16193;SDS011;8204;53.582;10.080;2023-11-19T07:14:42;31.93;;;14.47;;
16193;SDS011;8204;53.582;10.080;2023-11-19T07:17:08;22.90;;;12.63;;
16193;SDS011;8204;53.582;10.080;2023-11-19T07:19:36;25.20;;;11.37;;
16193;SDS011;8204;53.582;10.080;2023-11-19T07:22:04;21.87;;;10.90;;
16193;SDS011;8204;53.582;10.080;2023-11-19T07:24:29;22.07;;;11.43;;
16193;SDS011;8204;53.582;10.080;2023-11-19T07:26:54;30.77;;;12.30;;
16193;SDS011;8204;53.582;10.080;2023-11-19T07:29:20;28.13;;;11.27;;
16193;SDS011;8204;53.582;10.080;2023-11-19T07:31:50;23.23;;;11.50;;
16193;SDS011;8204;53.582;10.080;2023-11-19T07:34:16;17.77;;;9.60;;
16193;SDS011;8204;53.582;10.080;2023-11-19T07:36:41;29.60;;;10.93;;
16193;SDS011;8204;53.582;10.080;2023-11-19T07:39:07;17.83;;;9.33;;
16193;SDS011;8204;53.582;10.080;2023-11-19T07:41:33;19.63;;;8.90;;
16193;SDS011;8204;53.582;10.080;2023-11-19T07:43:59;17.93;;;9.80;;
16193;SDS011;8204;53.582;10.080;2023-11-19T07:46:26;18.77;;;9.17;;
16193;SDS011;8204;53.582;10.080;2023-11-19T07:48:52;16.33;;;9.63;;
16193;SDS011;8204;53.582;10.080;2023-11-19T07:51:18;20.17;;;10.23;;
16193;SDS011;8204;53.582;10.080;2023-11-19T07:53:43;22.03;;;8.23;;
16193;SDS011;8204;53.582;10.080;2023-11-19T07:56:10;16.90;;;9.13;;
16193;SDS011;8204;53.582;10.080;2023-11-19T07:58:36;15.30;;;8.87;;
16193;SDS011;8204;53.582;10.080;2023-11-19T08:01:02;26.10;;;10.27;;
16193;SDS011;8204;53.582;10.080;2023-11-19T08:03:28;18.67;;;8.77;;
16193;SDS011;8204;53.582;10.080;2023-11-19T08:05:57;23.17;;;8.97;;
16193;SDS011;8204;53.582;10.080;2023-11-19T08:08:23;27.40;;;10.50;;
16193;SDS011;8204;53.582;10.080;2023-11-19T08:10:48;26.93;;;10.07;;
16193;SDS011;8204;53.582;10.080;2023-11-19T08:13:14;23.10;;;7.87;;
16193;SDS011;8204;53.582;10.080;2023-11-19T08:15:39;20.90;;;9.17;;
16193;SDS011;8204;53.582;10.080;2023-11-19T08:18:06;29.70;;;9.70;;
16193;SDS011;8204;53.582;10.080;2023-11-19T08:20:33;23.03;;;8.97;;
16193;SDS011;8204;53.582;10.080;2023-11-19T08:22:59;25.67;;;9.30;;
16193;SDS011;8204;53.582;10.080;2023-11-19T08:25:25;24.23;;;10.27;;
16193;SDS011;8204;53.582;10.080;2023-11-19T08:27:50;21.53;;;9.07;;
16193;SDS011;8204;53.582;10.080;2023-11-19T08:30:16;19.53;;;9.77;;
16193;SDS011;8204;53.582;10.080;2023-11-19T08:32:41;25.37;;;9.80;;
16193;SDS011;8204;53.582;10.080;2023-11-19T08:35:08;15.57;;;9.03;;
16193;SDS011;8204;53.582;10.080;2023-11-19T08:37:34;33.17;;;11.43;;
16193;SDS011;8204;53.582;10.080;2023-11-19T08:40:02;28.13;;;11.03;;
16193;SDS011;8204;53.582;10.080;2023-11-19T08:42:30;26.77;;;9.63;;
16193;SDS011;8204;53.582;10.080;2023-11-19T08:44:56;25.07;;;9.13;;
16193;SDS011;8204;53.582;10.080;2023-11-19T08:47:22;21.07;;;9.33;;
16193;SDS011;8204;53.582;10.080;2023-11-19T08:49:51;23.57;;;8.87;;
16193;SDS011;8204;53.582;10.080;2023-11-19T08:52:17;24.17;;;10.43;;
16193;SDS011;8204;53.582;10.080;2023-11-19T08:54:43;34.67;;;9.17;;
16193;SDS011;8204;53.582;10.080;2023-11-19T08:57:08;28.17;;;10.53;;
16193;SDS011;8204;53.582;10.080;2023-11-19T08:59:34;20.80;;;10.20;;
16193;SDS011;8204;53.582;10.080;2023-11-19T09:02:00;23.27;;;9.63;;
16193;SDS011;8204;53.582;10.080;2023-11-19T09:04:25;24.90;;;10.17;;
16193;SDS011;8204;53.582;10.080;2023-11-19T09:06:51;21.17;;;9.30;;
16193;SDS011;8204;53.582;10.080;2023-11-19T09:09:17;26.37;;;9.77;;
16193;SDS011;8204;53.582;10.080;2023-11-19T09:11:43;28.07;;;10.73;;
16193;SDS011;8204;53.582;10.080;2023-11-19T09:14:08;20.73;;;8.30;;
16193;SDS011;8204;53.582;10.080;2023-11-19T09:16:34;27.80;;;9.93;;
16193;SDS011;8204;53.582;10.080;2023-11-19T09:18:59;28.43;;;10.20;;
16193;SDS011;8204;53.582;10.080;2023-11-19T09:21:28;27.43;;;9.40;;
16193;SDS011;8204;53.582;10.080;2023-11-19T09:23:54;24.03;;;9.00;;
16193;SDS011;8204;53.582;10.080;2023-11-19T09:26:20;26.73;;;8.53;;
16193;SDS011;8204;53.582;10.080;2023-11-19T09:28:45;27.03;;;10.70;;
16193;SDS011;8204;53.582;10.080;2023-11-19T09:31:14;26.87;;;10.17;;
16193;SDS011;8204;53.582;10.080;2023-11-19T09:33:43;34.23;;;11.67;;
16193;SDS011;8204;53.582;10.080;2023-11-19T09:36:11;35.90;;;11.70;;
16193;SDS011;8204;53.582;10.080;2023-11-19T09:38:43;37.83;;;12.07;;
16193;SDS011;8204;53.582;10.080;2023-11-19T09:41:09;26.57;;;9.47;;
16193;SDS011;8204;53.582;10.080;2023-11-19T09:43:37;25.57;;;11.50;;
16193;SDS011;8204;53.582;10.080;2023-11-19T09:46:06;20.80;;;9.83;;
16193;SDS011;8204;53.582;10.080;2023-11-19T09:48:37;26.67;;;10.47;;
16193;SDS011;8204;53.582;10.080;2023-11-19T09:51:04;22.33;;;9.57;;
16193;SDS011;8204;53.582;10.080;2023-11-19T09:53:30;27.60;;;9.17;;
16193;SDS011;8204;53.582;10.080;2023-11-19T09:55:57;26.30;;;11.43;;
16193;SDS011;8204;53.582;10.080;2023-11-19T09:58:28;27.27;;;11.43;;
16193;SDS011;8204;53.582;10.080;2023-11-19T10:00:55;28.47;;;11.70;;
16193;SDS011;8204;53.582;10.080;2023-11-19T10:03:20;28.83;;;11.03;;
16193;SDS011;8204;53.582;10.080;2023-11-19T10:05:48;22.37;;;9.40;;
16193;SDS011;8204;53.582;10.080;2023-11-19T10:08:14;21.70;;;10.10;;
16193;SDS011;8204;53.582;10.080;2023-11-19T10:10:41;27.90;;;10.13;;
16193;SDS011;8204;53.582;10.080;2023-11-19T10:13:06;23.37;;;9.87;;
16193;SDS011;8204;53.582;10.080;2023-11-19T10:15:36;33.93;;;11.40;;
16193;SDS011;8204;53.582;10.080;2023-11-19T10:18:03;29.40;;;9.50;;
16193;SDS011;8204;53.582;10.080;2023-11-19T10:20:37;23.30;;;9.23;;
16193;SDS011;8204;53.582;10.080;2023-11-19T10:23:06;30.60;;;11.87;;
16193;SDS011;8204;53.582;10.080;2023-11-19T10:25:32;30.83;;;11.23;;
16193;SDS011;8204;53.582;10.080;2023-11-19T10:27:58;32.33;;;11.13;;
16193;SDS011;8204;53.582;10.080;2023-11-19T10:30:25;31.33;;;10.67;;
16193;SDS011;8204;53.582;10.080;2023-11-19T10:33:08;24.60;;;10.03;;
16193;SDS011;8204;53.582;10.080;2023-11-19T10:35:35;29.77;;;11.07;;
16193;SDS011;8204;53.582;10.080;2023-11-19T10:38:14;26.93;;;11.67;;
16193;SDS011;8204;53.582;10.080;2023-11-19T10:40:43;20.17;;;9.93;;
16193;SDS011;8204;53.582;10.080;2023-11-19T10:43:08;36.40;;;11.57;;
16193;SDS011;8204;53.582;10.080;2023-11-19T10:45:34;35.60;;;11.53;;
16193;SDS011;8204;53.582;10.080;2023-11-19T10:48:01;25.03;;;9.93;;
16193;SDS011;8204;53.582;10.080;2023-11-19T10:50:27;25.63;;;9.87;;
16193;SDS011;8204;53.582;10.080;2023-11-19T10:52:57;32.80;;;10.53;;
16193;SDS011;8204;53.582;10.080;2023-11-19T10:55:27;33.93;;;10.60;;
16193;SDS011;8204;53.582;10.080;2023-11-19T10:57:56;85.73;;;50.43;;
16193;SDS011;8204;53.582;10.080;2023-11-19T11:00:24;24.80;;;10.90;;
16193;SDS011;8204;53.582;10.080;2023-11-19T11:02:52;28.17;;;11.80;;
16193;SDS011;8204;53.582;10.080;2023-11-19T11:05:22;32.23;;;15.90;;
16193;SDS011;8204;53.582;10.080;2023-11-19T11:07:47;24.20;;;10.07;;
16193;SDS011;8204;53.582;10.080;2023-11-19T11:10:14;33.03;;;14.77;;
16193;SDS011;8204;53.582;10.080;2023-11-19T11:12:41;30.07;;;12.43;;
16193;SDS011;8204;53.582;10.080;2023-11-19T11:15:10;35.00;;;10.97;;
16193;SDS011;8204;53.582;10.080;2023-11-19T11:17:39;32.77;;;10.90;;
16193;SDS011;8204;53.582;10.080;2023-11-19T11:20:08;33.07;;;11.97;;
16193;SDS011;8204;53.582;10.080;2023-11-19T11:22:38;31.07;;;11.37;;
16193;SDS011;8204;53.582;10.080;2023-11-19T11:25:23;28.80;;;9.63;;
16193;SDS011;8204;53.582;10.080;2023-11-19T11:28:16;33.43;;;10.63;;
16193;SDS011;8204;53.582;10.080;2023-11-19T11:31:03;24.50;;;9.83;;
16193;SDS011;8204;53.582;10.080;2023-11-19T11:36:31;33.90;;;9.80;;
16193;SDS011;8204;53.582;10.080;2023-11-19T11:39:10;27.03;;;9.80;;
16193;SDS011;8204;53.582;10.080;2023-11-19T11:41:36;24.57;;;10.43;;
16193;SDS011;8204;53.582;10.080;2023-11-19T11:44:01;29.87;;;9.70;;
16193;SDS011;8204;53.582;10.080;2023-11-19T11:49:00;29.53;;;9.73;;
16193;SDS011;8204;53.582;10.080;2023-11-19T11:54:10;25.67;;;9.13;;
16193;SDS011;8204;53.582;10.080;2023-11-19T11:56:36;24.90;;;8.83;;
16193;SDS011;8204;53.582;10.080;2023-11-19T11:59:02;32.47;;;10.37;;
16193;SDS011;8204;53.582;10.080;2023-11-19T12:01:29;28.17;;;10.03;;
16193;SDS011;8204;53.582;10.080;2023-11-19T12:03:56;34.03;;;11.33;;
16193;SDS011;8204;53.582;10.080;2023-11-19T12:06:22;25.03;;;11.00;;
16193;SDS011;8204;53.582;10.080;2023-11-19T12:08:47;27.97;;;9.70;;
16193;SDS011;8204;53.582;10.080;2023-11-19T12:11:14;28.20;;;10.70;;
16193;SDS011;8204;53.582;10.080;2023-11-19T12:13:54;27.60;;;9.73;;
16193;SDS011;8204;53.582;10.080;2023-11-19T12:16:26;32.57;;;10.40;;
16193;SDS011;8204;53.582;10.080;2023-11-19T12:18:53;29.43;;;9.87;;
16193;SDS011;8204;53.582;10.080;2023-11-19T12:21:29;24.67;;;8.97;;
16193;SDS011;8204;53.582;10.080;2023-11-19T12:23:57;29.60;;;9.47;;
16193;SDS011;8204;53.582;10.080;2023-11-19T12:26:34;32.47;;;10.73;;
16193;SDS011;8204;53.582;10.080;2023-11-19T12:29:01;35.90;;;12.60;;
16193;SDS011;8204;53.582;10.080;2023-11-19T12:31:29;33.77;;;13.63;;
16193;SDS011;8204;53.582;10.080;2023-11-19T12:33:56;38.13;;;10.00;;
16193;SDS011;8204;53.582;10.080;2023-11-19T12:36:22;22.00;;;10.17;;
16193;SDS011;8204;53.582;10.080;2023-11-19T12:38:47;24.67;;;9.17;;
16193;SDS011;8204;53.582;10.080;2023-11-19T12:41:13;21.80;;;8.87;;
16193;SDS011;8204;53.582;10.080;2023-11-19T12:43:43;28.03;;;9.60;;
16193;SDS011;8204;53.582;10.080;2023-11-19T12:46:21;25.93;;;9.00;;
16193;SDS011;8204;53.582;10.080;2023-11-19T12:48:47;21.87;;;8.87;;
16193;SDS011;8204;53.582;10.080;2023-11-19T12:51:13;25.93;;;9.80;;
16193;SDS011;8204;53.582;10.080;2023-11-19T12:53:49;27.83;;;9.43;;
16193;SDS011;8204;53.582;10.080;2023-11-19T12:56:19;20.60;;;8.50;;
16193;SDS011;8204;53.582;10.080;2023-11-19T12:58:46;24.33;;;8.83;;
16193;SDS011;8204;53.582;10.080;2023-11-19T13:01:15;24.00;;;8.80;;
16193;SDS011;8204;53.582;10.080;2023-11-19T13:03:42;19.97;;;8.83;;
16193;SDS011;8204;53.582;10.080;2023-11-19T13:06:10;21.17;;;9.33;;
16193;SDS011;8204;53.582;10.080;2023-11-19T13:08:50;29.47;;;10.87;;
16193;SDS011;8204;53.582;10.080;2023-11-19T13:11:33;19.87;;;7.87;;
16193;SDS011;8204;53.582;10.080;2023-11-19T13:14:04;23.47;;;9.90;;
16193;SDS011;8204;53.582;10.080;2023-11-19T13:16:30;31.67;;;10.97;;
16193;SDS011;8204;53.582;10.080;2023-11-19T13:18:57;22.80;;;10.47;;
16193;SDS011;8204;53.582;10.080;2023-11-19T13:21:24;20.47;;;10.17;;
16193;SDS011;8204;53.582;10.080;2023-11-19T13:23:50;25.73;;;10.27;;
16193;SDS011;8204;53.582;10.080;2023-11-19T13:26:15;26.73;;;9.13;;
16193;SDS011;8204;53.582;10.080;2023-11-19T13:28:41;25.13;;;9.00;;
16193;SDS011;8204;53.582;10.080;2023-11-19T13:31:06;19.93;;;10.23;;
16193;SDS011;8204;53.582;10.080;2023-11-19T13:33:32;27.87;;;9.60;;
16193;SDS011;8204;53.582;10.080;2023-11-19T13:36:00;27.53;;;10.27;;
16193;SDS011;8204;53.582;10.080;2023-11-19T13:38:30;24.50;;;10.10;;
16193;SDS011;8204;53.582;10.080;2023-11-19T13:41:00;24.07;;;9.17;;
16193;SDS011;8204;53.582;10.080;2023-11-19T13:43:26;27.87;;;10.87;;
16193;SDS011;8204;53.582;10.080;2023-11-19T13:45:53;18.20;;;8.97;;
16193;SDS011;8204;53.582;10.080;2023-11-19T13:48:21;25.30;;;10.43;;
16193;SDS011;8204;53.582;10.080;2023-11-19T13:50:48;18.27;;;9.03;;
16193;SDS011;8204;53.582;10.080;2023-11-19T13:53:14;23.73;;;8.07;;
16193;SDS011;8204;53.582;10.080;2023-11-19T13:55:39;22.03;;;8.70;;
16193;SDS011;8204;53.582;10.080;2023-11-19T13:58:05;30.43;;;10.40;;
16193;SDS011;8204;53.582;10.080;2023-11-19T14:00:31;22.90;;;8.33;;
16193;SDS011;8204;53.582;10.080;2023-11-19T14:02:56;26.83;;;10.67;;
16193;SDS011;8204;53.582;10.080;2023-11-19T14:05:22;21.40;;;9.33;;
16193;SDS011;8204;53.582;10.080;2023-11-19T14:07:48;25.03;;;9.60;;
16193;SDS011;8204;53.582;10.080;2023-11-19T14:10:14;27.23;;;9.23;;
16193;SDS011;8204;53.582;10.080;2023-11-19T14:12:41;29.27;;;9.47;;
16193;SDS011;8204;53.582;10.080;2023-11-19T14:15:07;23.57;;;8.43;;
16193;SDS011;8204;53.582;10.080;2023-11-19T14:17:40;25.57;;;8.40;;
16193;SDS011;8204;53.582;10.080;2023-11-19T14:20:06;27.97;;;9.33;;
16193;SDS011;8204;53.582;10.080;2023-11-19T14:22:39;25.73;;;10.50;;
16193;SDS011;8204;53.582;10.080;2023-11-19T14:25:05;23.00;;;8.47;;
16193;SDS011;8204;53.582;10.080;2023-11-19T14:27:36;22.20;;;8.90;;
16193;SDS011;8204;53.582;10.080;2023-11-19T14:30:03;27.67;;;9.40;;
16193;SDS011;8204;53.582;10.080;2023-11-19T14:32:33;22.53;;;8.90;;
16193;SDS011;8204;53.582;10.080;2023-11-19T14:34:59;32.57;;;8.33;;
16193;SDS011;8204;53.582;10.080;2023-11-19T14:37:24;21.20;;;8.50;;
16193;SDS011;8204;53.582;10.080;2023-11-19T14:39:50;27.10;;;9.77;;
16193;SDS011;8204;53.582;10.080;2023-11-19T14:42:16;19.63;;;8.93;;